Time;durP1;ratioP1;P1;durP2;ratioP2;P2;SDS_P1;SDS_P2;PMS_P1;PMS_P2;Temp;Humidity;BMP_temperature;BMP_pressure;BME280_temperature;BME280_humidity;BME280_pressure;Samples;Min_cycle;Max_cycle;Signal;HPM_P1;HPM_P2
2022/01/27 00:05:20;;;;;;;83.18;41.78;;;;;;;;;;5083723;28;20068;-82
2022/01/27 00:08:00;;;;;;;84.75;40.83;;;;;;;;;;5082754;28;20045;-80
2022/01/27 00:12:54;;;;;;;89.82;40.20;;;;;;;;;;5081209;28;20040;-80
2022/01/27 00:15:28;;;;;;;86.88;42.08;;;;;;;;;;5080528;28;20054;-80
2022/01/27 00:17:59;;;;;;;96.45;41.72;;;;;;;;;;5066480;28;20399;-80
2022/01/27 00:20:25;;;;;;;83.03;40.88;;;;;;;;;;5080853;28;20043;-81
2022/01/27 00:22:51;;;;;;;91.28;41.30;;;;;;;;;;5063452;28;20352;-79
2022/01/27 00:25:17;;;;;;;83.70;39.58;;;;;;;;;;5080417;28;20036;-81
2022/01/27 00:27:43;;;;;;;86.28;38.65;;;;;;;;;;5063581;28;20044;-80
2022/01/27 00:30:09;;;;;;;85.43;40.58;;;;;;;;;;5084538;28;20040;-79
2022/01/27 00:32:35;;;;;;;91.60;39.75;;;;;;;;;;5085025;28;20093;-81
2022/01/27 00:35:01;;;;;;;89.97;39.55;;;;;;;;;;5081043;28;20032;-79
2022/01/27 00:37:27;;;;;;;82.43;40.72;;;;;;;;;;5098539;28;20071;-79
2022/01/27 00:39:53;;;;;;;81.00;40.08;;;;;;;;;;5068902;28;20444;-81
2022/01/27 00:42:19;;;;;;;83.53;39.80;;;;;;;;;;5067271;28;20048;-80
2022/01/27 00:44:45;;;;;;;78.95;40.00;;;;;;;;;;5067856;28;20111;-81
2022/01/27 00:47:11;;;;;;;80.50;41.78;;;;;;;;;;5073019;28;20068;-81
2022/01/27 00:49:38;;;;;;;81.35;40.35;;;;;;;;;;5087158;28;20149;-80
2022/01/27 00:52:07;;;;;;;82.60;40.22;;;;;;;;;;5067352;28;20036;-80
2022/01/27 00:54:33;;;;;;;80.10;38.40;;;;;;;;;;5084531;28;20036;-82
2022/01/27 00:57:15;;;;;;;78.82;39.72;;;;;;;;;;5067069;28;20040;-82
2022/01/27 01:02:27;;;;;;;82.28;38.28;;;;;;;;;;5085567;28;20075;-81
2022/01/27 01:05:22;;;;;;;86.38;42.92;;;;;;;;;;5070860;28;20071;-80
2022/01/27 01:07:53;;;;;;;85.97;42.20;;;;;;;;;;5073428;28;20048;-82
2022/01/27 01:15:40;;;;;;;87.70;45.05;;;;;;;;;;5085925;28;20029;-82
2022/01/27 01:18:23;;;;;;;91.75;45.63;;;;;;;;;;5086243;28;20444;-81
2022/01/27 01:21:12;;;;;;;84.68;44.08;;;;;;;;;;5084390;28;20025;-79
2022/01/27 01:32:07;;;;;;;90.97;43.35;;;;;;;;;;5085768;28;20448;-82
2022/01/27 01:34:33;;;;;;;89.82;45.05;;;;;;;;;;5085518;28;20044;-81
2022/01/27 01:37:05;;;;;;;91.03;43.85;;;;;;;;;;5085628;28;20040;-81
2022/01/27 01:39:33;;;;;;;86.30;41.90;;;;;;;;;;5090435;28;20041;-81
2022/01/27 01:41:59;;;;;;;87.63;42.00;;;;;;;;;;5090549;28;20041;-80
2022/01/27 01:44:25;;;;;;;93.03;43.05;;;;;;;;;;5092455;28;20047;-82
2022/01/27 01:46:51;;;;;;;87.32;41.78;;;;;;;;;;5090414;28;20043;-80
2022/01/27 01:49:19;;;;;;;89.47;42.60;;;;;;;;;;5067968;28;20040;-80
2022/01/27 01:51:45;;;;;;;87.25;42.60;;;;;;;;;;5068469;28;20097;-81
2022/01/27 01:54:12;;;;;;;88.20;41.65;;;;;;;;;;5068749;28;20387;-81
2022/01/27 01:56:38;;;;;;;85.25;41.72;;;;;;;;;;5068677;28;20041;-80
2022/01/27 01:59:05;;;;;;;83.85;40.38;;;;;;;;;;5067953;28;20045;-79
2022/01/27 02:01:32;;;;;;;83.25;41.28;;;;;;;;;;5067502;28;20405;-80
2022/01/27 02:04:02;;;;;;;82.32;38.08;;;;;;;;;;5084400;28;20037;-80
2022/01/27 02:06:36;;;;;;;81.70;40.42;;;;;;;;;;5099644;28;20051;-78
2022/01/27 02:20:01;;;;;;;84.70;39.30;;;;;;;;;;5092112;28;20033;-81
2022/01/27 02:22:27;;;;;;;82.50;38.15;;;;;;;;;;5074645;28;20040;-81
2022/01/27 02:24:53;;;;;;;81.90;38.40;;;;;;;;;;5070341;28;20047;-80
2022/01/27 02:27:19;;;;;;;77.80;37.92;;;;;;;;;;5068437;28;20440;-80
2022/01/27 02:29:45;;;;;;;73.63;36.05;;;;;;;;;;5068491;28;20044;-79
2022/01/27 02:32:12;;;;;;;77.97;35.17;;;;;;;;;;5068091;28;20063;-80
2022/01/27 02:34:38;;;;;;;76.18;37.20;;;;;;;;;;5084243;28;20050;-81
2022/01/27 02:37:04;;;;;;;73.82;36.58;;;;;;;;;;5064427;28;20036;-80
2022/01/27 02:39:30;;;;;;;79.18;36.83;;;;;;;;;;5081628;28;20453;-80
2022/01/27 02:41:57;;;;;;;72.00;37.28;;;;;;;;;;5065920;28;20044;-80
2022/01/27 02:44:29;;;;;;;76.00;36.83;;;;;;;;;;5080475;28;20041;-80
2022/01/27 02:46:55;;;;;;;83.53;37.28;;;;;;;;;;5080485;28;20071;-80
2022/01/27 02:49:21;;;;;;;81.97;38.63;;;;;;;;;;5089340;28;20094;-81
2022/01/27 02:51:47;;;;;;;79.40;34.92;;;;;;;;;;5097371;28;20037;-79
2022/01/27 02:54:13;;;;;;;70.20;37.17;;;;;;;;;;5096443;28;20036;-80
2022/01/27 02:56:44;;;;;;;79.97;36.78;;;;;;;;;;5087520;28;20058;-80
2022/01/27 02:59:10;;;;;;;83.10;38.10;;;;;;;;;;5071494;28;20096;-81
2022/01/27 03:01:36;;;;;;;82.93;37.33;;;;;;;;;;5070688;28;20055;-80
2022/01/27 03:04:03;;;;;;;80.10;37.38;;;;;;;;;;5069192;28;20101;-80
2022/01/27 03:06:28;;;;;;;81.00;37.55;;;;;;;;;;5084959;28;20033;-80
2022/01/27 03:08:54;;;;;;;81.50;37.70;;;;;;;;;;5080885;28;20349;-81
2022/01/27 03:11:33;;;;;;;82.78;39.60;;;;;;;;;;5063450;28;20098;-79
2022/01/27 03:13:59;;;;;;;82.47;38.70;;;;;;;;;;5064110;28;20048;-79
2022/01/27 03:16:25;;;;;;;76.57;34.08;;;;;;;;;;5081193;28;20032;-81
2022/01/27 03:18:51;;;;;;;94.25;39.63;;;;;;;;;;5065396;28;20037;-81
2022/01/27 03:21:17;;;;;;;81.60;38.28;;;;;;;;;;5064652;28;20048;-80
2022/01/27 03:23:43;;;;;;;79.15;37.70;;;;;;;;;;5081430;28;20356;-81
2022/01/27 03:26:09;;;;;;;77.57;37.90;;;;;;;;;;5080169;28;20037;-79
2022/01/27 03:28:35;;;;;;;90.75;39.70;;;;;;;;;;5063249;28;20040;-80
2022/01/27 03:31:01;;;;;;;91.93;39.92;;;;;;;;;;5082415;28;20039;-79
2022/01/27 03:33:27;;;;;;;84.28;38.58;;;;;;;;;;5065362;28;20036;-79
2022/01/27 03:35:53;;;;;;;82.95;39.10;;;;;;;;;;5067525;28;20033;-78
2022/01/27 03:38:19;;;;;;;80.50;38.17;;;;;;;;;;5080294;28;20052;-78
2022/01/27 03:40:45;;;;;;;73.72;35.67;;;;;;;;;;5069781;28;20040;-81
2022/01/27 03:43:11;;;;;;;77.00;37.42;;;;;;;;;;5062878;28;20037;-80
2022/01/27 03:45:37;;;;;;;80.50;36.45;;;;;;;;;;5065152;28;20462;-80
2022/01/27 03:48:04;;;;;;;76.10;37.65;;;;;;;;;;5065389;28;20033;-80
2022/01/27 03:50:30;;;;;;;76.78;37.60;;;;;;;;;;5066559;28;20071;-80
2022/01/27 03:52:56;;;;;;;80.65;38.40;;;;;;;;;;5084662;28;20029;-80
2022/01/27 03:55:22;;;;;;;82.15;39.13;;;;;;;;;;5067936;28;20048;-80
2022/01/27 03:57:48;;;;;;;79.05;37.45;;;;;;;;;;5066932;28;20040;-79
2022/01/27 04:00:14;;;;;;;75.65;34.50;;;;;;;;;;5083096;28;20479;-80
2022/01/27 04:02:51;;;;;;;75.32;37.65;;;;;;;;;;5065706;28;20036;-79
2022/01/27 04:05:21;;;;;;;79.40;38.15;;;;;;;;;;5065681;28;20070;-81
2022/01/27 04:07:47;;;;;;;80.20;37.10;;;;;;;;;;5063833;28;20111;-80
2022/01/27 04:10:13;;;;;;;81.03;36.85;;;;;;;;;;5079893;28;20044;-79
2022/01/27 04:12:39;;;;;;;80.32;38.55;;;;;;;;;;5062657;28;20452;-79
2022/01/27 04:15:05;;;;;;;72.63;36.40;;;;;;;;;;5063507;28;20078;-80
2022/01/27 04:17:31;;;;;;;74.68;36.45;;;;;;;;;;5080280;28;20435;-80
2022/01/27 04:19:57;;;;;;;74.80;35.55;;;;;;;;;;5083139;28;20075;-80
2022/01/27 04:22:23;;;;;;;76.30;37.38;;;;;;;;;;5078349;28;20088;-79
2022/01/27 04:24:49;;;;;;;74.15;37.10;;;;;;;;;;5095201;28;20089;-81
2022/01/27 04:27:20;;;;;;;77.50;35.58;;;;;;;;;;5063928;28;20055;-82
2022/01/27 04:29:46;;;;;;;70.57;33.97;;;;;;;;;;5065011;28;20403;-81
2022/01/27 04:32:19;;;;;;;76.32;36.45;;;;;;;;;;5081188;28;20040;-80
2022/01/27 04:34:45;;;;;;;74.20;36.10;;;;;;;;;;5069920;28;20037;-80
2022/01/27 04:37:12;;;;;;;75.95;36.03;;;;;;;;;;5068821;28;20044;-79
2022/01/27 04:39:53;;;;;;;76.95;34.67;;;;;;;;;;5064553;28;20041;-81
2022/01/27 04:42:33;;;;;;;77.75;38.00;;;;;;;;;;5081342;28;20036;-80
2022/01/27 04:45:03;;;;;;;76.18;37.25;;;;;;;;;;5080910;28;20115;-80
2022/01/27 04:47:36;;;;;;;82.65;37.45;;;;;;;;;;5080665;28;20049;-80
2022/01/27 04:50:03;;;;;;;75.70;36.63;;;;;;;;;;5064265;28;20032;-82
2022/01/27 04:52:32;;;;;;;74.10;36.47;;;;;;;;;;5083380;28;20045;-80
2022/01/27 04:55:10;;;;;;;78.05;36.70;;;;;;;;;;5066193;28;20040;-77
2022/01/27 04:57:39;;;;;;;79.20;37.42;;;;;;;;;;5064118;28;20040;-80
2022/01/27 05:00:07;;;;;;;80.78;36.20;;;;;;;;;;5064044;28;20055;-80
2022/01/27 05:02:41;;;;;;;76.63;36.60;;;;;;;;;;5079851;28;20112;-80
2022/01/27 05:05:07;;;;;;;74.13;36.08;;;;;;;;;;5079932;28;20044;-79
2022/01/27 05:07:34;;;;;;;73.50;35.55;;;;;;;;;;5088948;28;20032;-78
2022/01/27 05:10:08;;;;;;;71.50;34.78;;;;;;;;;;5095781;28;20052;-79
2022/01/27 05:12:48;;;;;;;71.32;35.10;;;;;;;;;;5091269;28;20040;-80
2022/01/27 05:15:14;;;;;;;68.90;33.00;;;;;;;;;;5089571;28;20147;-80
2022/01/27 05:17:40;;;;;;;67.30;33.25;;;;;;;;;;5090796;28;20125;-81
2022/01/27 05:20:06;;;;;;;69.65;34.67;;;;;;;;;;5071517;28;20082;-80
2022/01/27 05:22:32;;;;;;;71.07;33.72;;;;;;;;;;5071917;28;20055;-80
2022/01/27 05:24:58;;;;;;;59.80;31.85;;;;;;;;;;5067604;28;20056;-79
2022/01/27 05:27:24;;;;;;;70.10;33.13;;;;;;;;;;5065557;28;20457;-79
2022/01/27 05:29:52;;;;;;;65.55;32.67;;;;;;;;;;5082219;28;20044;-80
2022/01/27 05:32:18;;;;;;;69.18;33.22;;;;;;;;;;5080909;28;20070;-78
2022/01/27 05:34:44;;;;;;;64.15;30.83;;;;;;;;;;5079906;28;20051;-77
2022/01/27 05:37:10;;;;;;;65.10;31.88;;;;;;;;;;5061931;28;20040;-77
2022/01/27 05:39:36;;;;;;;68.18;31.60;;;;;;;;;;5078138;28;20042;-77
2022/01/27 05:42:02;;;;;;;61.05;29.80;;;;;;;;;;5061956;28;20111;-77
2022/01/27 05:44:30;;;;;;;64.25;31.58;;;;;;;;;;5061321;28;20044;-77
2022/01/27 05:46:56;;;;;;;60.33;29.35;;;;;;;;;;5080611;28;20044;-76
2022/01/27 05:49:22;;;;;;;58.50;28.92;;;;;;;;;;5083025;28;20036;-78
2022/01/27 05:51:48;;;;;;;63.55;30.90;;;;;;;;;;5068013;28;20036;-78
2022/01/27 05:54:14;;;;;;;60.25;30.73;;;;;;;;;;5090504;28;20032;-77
2022/01/27 05:56:40;;;;;;;59.85;30.15;;;;;;;;;;5096245;28;20372;-77
2022/01/27 05:59:06;;;;;;;63.28;30.05;;;;;;;;;;5078409;28;20040;-77
2022/01/27 06:01:32;;;;;;;65.05;30.75;;;;;;;;;;5078860;28;20425;-78
2022/01/27 06:03:58;;;;;;;61.47;30.52;;;;;;;;;;5078786;28;20063;-79
2022/01/27 06:06:24;;;;;;;61.92;31.42;;;;;;;;;;5080296;28;20037;-79
2022/01/27 06:08:50;;;;;;;69.55;30.80;;;;;;;;;;5084712;28;20052;-80
2022/01/27 06:11:16;;;;;;;65.82;30.33;;;;;;;;;;5084189;28;20047;-79
2022/01/27 06:13:43;;;;;;;62.25;30.75;;;;;;;;;;5081859;28;20432;-81
2022/01/27 06:16:11;;;;;;;65.40;29.40;;;;;;;;;;5081431;28;20033;-79
2022/01/27 06:18:37;;;;;;;58.55;30.10;;;;;;;;;;5079718;28;20048;-80
2022/01/27 06:21:05;;;;;;;64.63;30.90;;;;;;;;;;5081896;28;20348;-79
2022/01/27 06:23:31;;;;;;;58.95;29.08;;;;;;;;;;5063556;28;20040;-79
2022/01/27 06:25:58;;;;;;;60.80;29.38;;;;;;;;;;5062519;28;20098;-79
2022/01/27 06:28:24;;;;;;;61.42;29.83;;;;;;;;;;5079204;28;20044;-78
2022/01/27 06:30:50;;;;;;;55.53;29.50;;;;;;;;;;5079143;28;20044;-79
2022/01/27 06:33:16;;;;;;;63.97;30.05;;;;;;;;;;5078702;28;20094;-79
2022/01/27 06:35:43;;;;;;;58.67;28.55;;;;;;;;;;5063698;28;20097;-78
2022/01/27 06:38:09;;;;;;;66.72;27.90;;;;;;;;;;5082801;28;20079;-79
2022/01/27 06:40:35;;;;;;;60.35;28.83;;;;;;;;;;5097954;28;20043;-77
2022/01/27 06:43:01;;;;;;;61.60;29.52;;;;;;;;;;5088596;28;20372;-80
2022/01/27 06:45:27;;;;;;;58.88;29.90;;;;;;;;;;5078024;28;20360;-77
2022/01/27 06:47:53;;;;;;;61.17;30.80;;;;;;;;;;5075982;28;20364;-77
2022/01/27 06:50:19;;;;;;;59.22;29.45;;;;;;;;;;5075445;28;20119;-77
2022/01/27 06:52:45;;;;;;;56.88;29.65;;;;;;;;;;5075896;28;20424;-77
2022/01/27 06:55:11;;;;;;;64.43;30.13;;;;;;;;;;5076392;28;20036;-79
2022/01/27 06:57:37;;;;;;;62.17;28.25;;;;;;;;;;5060978;28;20072;-79
2022/01/27 07:00:04;;;;;;;54.25;27.42;;;;;;;;;;5076059;28;20437;-78
2022/01/27 07:02:30;;;;;;;60.80;29.15;;;;;;;;;;5076461;28;20334;-76
2022/01/27 07:04:57;;;;;;;54.97;27.52;;;;;;;;;;5075479;28;20051;-76
2022/01/27 07:07:23;;;;;;;61.38;29.73;;;;;;;;;;5074996;28;20048;-76
2022/01/27 07:09:49;;;;;;;62.38;30.02;;;;;;;;;;5075855;28;20371;-76
2022/01/27 07:12:15;;;;;;;58.33;29.38;;;;;;;;;;5076500;28;20043;-77
2022/01/27 07:14:41;;;;;;;56.63;28.63;;;;;;;;;;5058711;28;20047;-77
2022/01/27 07:17:07;;;;;;;57.50;27.10;;;;;;;;;;5075271;28;20090;-76
2022/01/27 07:19:33;;;;;;;61.38;28.02;;;;;;;;;;5058270;28;20044;-76
2022/01/27 07:21:59;;;;;;;64.70;29.00;;;;;;;;;;5058524;28;20032;-76
2022/01/27 07:24:25;;;;;;;55.35;28.05;;;;;;;;;;5060208;28;20186;-76
2022/01/27 07:26:51;;;;;;;56.53;27.30;;;;;;;;;;5073210;28;20048;-75
2022/01/27 07:29:17;;;;;;;63.42;28.73;;;;;;;;;;5081089;28;20360;-76
2022/01/27 07:31:43;;;;;;;58.75;28.52;;;;;;;;;;5058165;28;20115;-76
2022/01/27 07:34:09;;;;;;;52.72;26.23;;;;;;;;;;5074322;28;20040;-76
2022/01/27 07:36:35;;;;;;;58.30;28.50;;;;;;;;;;5075104;28;20084;-77
2022/01/27 07:39:02;;;;;;;55.40;27.45;;;;;;;;;;5075758;28;20115;-76
2022/01/27 07:41:28;;;;;;;52.35;26.00;;;;;;;;;;5059045;28;20044;-77
2022/01/27 07:43:54;;;;;;;61.63;28.27;;;;;;;;;;5076549;28;20047;-77
2022/01/27 07:46:20;;;;;;;54.50;28.60;;;;;;;;;;5075671;28;20166;-77
2022/01/27 07:48:46;;;;;;;55.58;28.42;;;;;;;;;;5074929;28;20122;-78
2022/01/27 07:51:12;;;;;;;61.72;30.08;;;;;;;;;;5075845;28;20423;-77
2022/01/27 07:53:38;;;;;;;51.25;27.40;;;;;;;;;;5074935;28;20046;-76
2022/01/27 07:56:04;;;;;;;58.60;29.42;;;;;;;;;;5074419;28;20041;-77
2022/01/27 07:58:31;;;;;;;68.50;30.95;;;;;;;;;;5058028;28;20151;-77
2022/01/27 08:00:57;;;;;;;70.68;31.38;;;;;;;;;;5074693;28;20120;-76
2022/01/27 08:03:23;;;;;;;63.15;29.73;;;;;;;;;;5074393;28;20047;-76
2022/01/27 08:05:49;;;;;;;69.47;32.28;;;;;;;;;;5075618;28;20036;-77
2022/01/27 08:08:15;;;;;;;65.30;31.20;;;;;;;;;;5058773;28;20052;-76
2022/01/27 08:10:41;;;;;;;66.70;32.70;;;;;;;;;;5085977;28;20033;-77
2022/01/27 08:13:07;;;;;;;59.72;30.80;;;;;;;;;;5097513;28;20296;-76
2022/01/27 08:15:34;;;;;;;67.68;30.65;;;;;;;;;;5083363;28;20059;-77
2022/01/27 08:18:00;;;;;;;62.95;30.73;;;;;;;;;;5075823;28;20045;-77
2022/01/27 08:20:26;;;;;;;64.32;32.78;;;;;;;;;;5058992;28;20043;-77
2022/01/27 08:22:54;;;;;;;66.97;33.17;;;;;;;;;;5058208;28;20036;-77
2022/01/27 08:25:20;;;;;;;70.22;34.00;;;;;;;;;;5077424;28;20048;-77
2022/01/27 08:27:48;;;;;;;71.65;35.08;;;;;;;;;;5075115;28;20051;-76
2022/01/27 08:30:17;;;;;;;69.22;34.05;;;;;;;;;;5075308;28;20055;-77
2022/01/27 08:32:57;;;;;;;74.05;35.85;;;;;;;;;;5059699;28;20064;-75
2022/01/27 08:35:23;;;;;;;75.25;34.85;;;;;;;;;;5075074;28;20489;-77
2022/01/27 08:37:49;;;;;;;74.03;36.47;;;;;;;;;;5077626;28;20041;-76
2022/01/27 08:40:15;;;;;;;85.32;38.05;;;;;;;;;;5076153;28;20032;-77
2022/01/27 08:42:42;;;;;;;76.32;36.65;;;;;;;;;;5077511;28;20072;-77
2022/01/27 08:45:12;;;;;;;73.70;34.30;;;;;;;;;;5077350;28;20048;-77
2022/01/27 08:47:38;;;;;;;77.40;35.33;;;;;;;;;;5059360;28;20456;-77
2022/01/27 08:50:04;;;;;;;68.22;34.08;;;;;;;;;;5077612;28;20149;-77
2022/01/27 08:52:31;;;;;;;66.85;32.10;;;;;;;;;;5063461;28;20037;-76
2022/01/27 08:54:57;;;;;;;64.97;33.22;;;;;;;;;;5083755;28;20044;-76
2022/01/27 08:57:23;;;;;;;62.25;32.10;;;;;;;;;;5089223;28;20135;-79
2022/01/27 08:59:51;;;;;;;62.58;32.58;;;;;;;;;;5095753;28;20028;-78
2022/01/27 09:02:17;;;;;;;64.72;31.77;;;;;;;;;;5083313;28;20051;-77
2022/01/27 09:04:43;;;;;;;64.95;29.88;;;;;;;;;;5084349;28;20040;-80
2022/01/27 09:07:09;;;;;;;59.83;29.98;;;;;;;;;;5088230;28;20063;-80
2022/01/27 09:09:35;;;;;;;59.72;30.70;;;;;;;;;;5088376;28;20076;-81
2022/01/27 09:12:01;;;;;;;58.45;31.25;;;;;;;;;;5068294;28;20037;-79
2022/01/27 09:14:29;;;;;;;66.72;30.65;;;;;;;;;;5084512;28;20224;-78
2022/01/27 09:16:56;;;;;;;55.20;27.13;;;;;;;;;;5084853;28;20040;-80
2022/01/27 09:19:25;;;;;;;56.20;27.25;;;;;;;;;;5068020;28;20040;-80
2022/01/27 09:21:53;;;;;;;46.67;24.42;;;;;;;;;;5069131;28;20036;-79
2022/01/27 09:24:26;;;;;;;54.25;26.80;;;;;;;;;;5085542;28;20028;-80
2022/01/27 09:26:58;;;;;;;50.40;24.02;;;;;;;;;;5067652;28;20036;-79
2022/01/27 09:29:24;;;;;;;44.28;23.95;;;;;;;;;;5085511;28;20375;-79
2022/01/27 09:31:50;;;;;;;48.80;23.67;;;;;;;;;;5089499;28;20043;-79
2022/01/27 09:34:16;;;;;;;46.20;23.45;;;;;;;;;;5084891;28;20125;-79
2022/01/27 09:36:42;;;;;;;39.85;22.33;;;;;;;;;;5085673;28;20115;-78
2022/01/27 09:39:08;;;;;;;41.70;21.52;;;;;;;;;;5068337;28;20071;-80
2022/01/27 09:41:36;;;;;;;40.13;21.20;;;;;;;;;;5082821;28;20071;-78
2022/01/27 09:44:03;;;;;;;41.47;21.27;;;;;;;;;;5091356;28;20086;-77
2022/01/27 09:46:29;;;;;;;39.55;20.85;;;;;;;;;;5089697;28;20083;-78
2022/01/27 09:48:55;;;;;;;36.78;20.00;;;;;;;;;;5083701;28;20051;-78
2022/01/27 09:53:51;;;;;;;34.97;19.52;;;;;;;;;;5093489;28;20045;-78
2022/01/27 09:56:17;;;;;;;38.42;18.63;;;;;;;;;;5084169;28;20051;-78
2022/01/27 09:58:43;;;;;;;34.78;19.92;;;;;;;;;;5081133;28;20041;-78
2022/01/27 10:01:09;;;;;;;33.08;18.73;;;;;;;;;;5080794;28;20341;-78
2022/01/27 10:03:51;;;;;;;32.97;18.55;;;;;;;;;;5078668;28;20036;-77
2022/01/27 10:06:18;;;;;;;28.75;16.38;;;;;;;;;;5078356;28;20341;-78
2022/01/27 10:08:44;;;;;;;26.17;15.77;;;;;;;;;;5061099;28;20048;-77
2022/01/27 10:11:17;;;;;;;33.67;17.58;;;;;;;;;;5060954;28;20352;-78
2022/01/27 10:13:45;;;;;;;29.60;16.52;;;;;;;;;;5064140;28;20129;-79
2022/01/27 10:16:30;;;;;;;28.95;16.88;;;;;;;;;;5082333;28;20037;-79
2022/01/27 10:19:05;;;;;;;30.33;16.25;;;;;;;;;;5067312;28;20055;-78
2022/01/27 10:21:31;;;;;;;26.80;15.57;;;;;;;;;;5082443;28;20036;-79
2022/01/27 10:23:57;;;;;;;28.45;14.57;;;;;;;;;;5080960;28;20048;-78
2022/01/27 10:26:30;;;;;;;25.77;14.60;;;;;;;;;;5079483;28;20074;-78
2022/01/27 10:29:12;;;;;;;29.90;14.85;;;;;;;;;;5085419;28;20036;-78
2022/01/27 10:31:39;;;;;;;21.42;13.40;;;;;;;;;;5089802;28;20088;-79
2022/01/27 10:34:06;;;;;;;25.13;12.95;;;;;;;;;;5082834;28;20033;-79
2022/01/27 10:36:43;;;;;;;22.88;12.32;;;;;;;;;;5082761;28;20088;-79
2022/01/27 10:39:10;;;;;;;17.35;11.93;;;;;;;;;;5082147;28;20036;-78
2022/01/27 10:41:37;;;;;;;21.17;12.15;;;;;;;;;;5065900;28;20037;-78
2022/01/27 10:44:11;;;;;;;19.67;11.20;;;;;;;;;;5063927;28;20041;-78
2022/01/27 10:46:43;;;;;;;18.05;10.73;;;;;;;;;;5079678;28;20582;-77
2022/01/27 10:49:17;;;;;;;20.57;11.23;;;;;;;;;;5079430;28;20357;-77
2022/01/27 10:51:48;;;;;;;21.17;10.73;;;;;;;;;;5079937;28;20068;-78
2022/01/27 10:54:23;;;;;;;17.65;10.15;;;;;;;;;;5082316;28;20033;-77
2022/01/27 10:56:49;;;;;;;15.73;9.90;;;;;;;;;;5085601;28;20105;-77
2022/01/27 10:59:15;;;;;;;17.27;10.43;;;;;;;;;;5082951;28;20406;-77
2022/01/27 11:01:42;;;;;;;17.35;11.02;;;;;;;;;;5082653;28;20037;-78
2022/01/27 11:04:09;;;;;;;19.92;11.40;;;;;;;;;;5063103;28;20118;-78
2022/01/27 11:06:35;;;;;;;20.08;11.65;;;;;;;;;;5077904;28;20051;-78
2022/01/27 11:09:08;;;;;;;22.55;12.82;;;;;;;;;;5060320;28;20056;-78
2022/01/27 11:11:34;;;;;;;20.73;12.70;;;;;;;;;;5068092;28;20369;-77
2022/01/27 11:14:00;;;;;;;25.80;13.27;;;;;;;;;;5065451;28;20036;-77
2022/01/27 11:16:33;;;;;;;23.15;13.25;;;;;;;;;;5070777;28;20039;-77
2022/01/27 11:19:18;;;;;;;;;;;;;;;;;;5083157;28;20044;-78
2022/01/27 11:21:46;;;;;;;21.83;13.25;;;;;;;;;;5092717;28;20340;-77
2022/01/27 11:24:23;;;;;;;21.77;13.77;;;;;;;;;;5058827;28;20044;-77
2022/01/27 11:26:49;;;;;;;26.85;14.20;;;;;;;;;;5064421;28;20044;-78
2022/01/27 11:29:17;;;;;;;22.42;13.98;;;;;;;;;;5079417;28;20055;-77
2022/01/27 11:31:46;;;;;;;22.15;12.45;;;;;;;;;;5062524;28;20033;-79
2022/01/27 11:34:12;;;;;;;24.23;13.43;;;;;;;;;;5061920;28;20119;-77
2022/01/27 11:36:38;;;;;;;20.60;12.82;;;;;;;;;;5081634;28;20064;-78
2022/01/27 11:39:31;;;;;;;22.42;11.77;;;;;;;;;;5082826;28;20119;-77
2022/01/27 11:42:21;;;;;;;22.00;13.20;;;;;;;;;;5036016;28;20034;-78
2022/01/27 11:45:32;;;;;;;22.25;11.88;;;;;;;;;;5033332;28;20038;-78
2022/01/27 11:48:36;;;;;;;23.50;13.60;;;;;;;;;;5090411;28;20052;-78
2022/01/27 11:51:19;;;;;;;23.23;13.77;;;;;;;;;;5087539;28;20044;-77
2022/01/27 12:03:47;;;;;;;23.00;15.60;;;;;;;;;;5026467;28;20032;-78
2022/01/27 12:13:36;;;;;;;24.50;14.57;;;;;;;;;;5032580;28;20106;-75
2022/01/27 12:23:15;;;;;;;21.63;14.50;;;;;;;;;;5010241;28;20037;-77
2022/01/27 12:25:46;;;;;;;23.65;14.18;;;;;;;;;;5037872;28;20026;-77
2022/01/27 12:28:15;;;;;;;21.83;13.43;;;;;;;;;;5091221;28;20037;-76
2022/01/27 12:30:54;;;;;;;24.38;14.75;;;;;;;;;;5066021;28;20051;-76
2022/01/27 12:33:23;;;;;;;21.48;13.98;;;;;;;;;;5065818;28;20040;-76
2022/01/27 12:35:57;;;;;;;23.25;14.05;;;;;;;;;;5099139;28;20081;-75
2022/01/27 12:38:33;;;;;;;21.95;13.95;;;;;;;;;;5102820;28;20085;-76
2022/01/27 12:42:19;;;;;;;19.98;13.80;;;;;;;;;;5119567;28;20043;-76
2022/01/27 13:06:03;;;;;;;22.35;14.70;;;;;;;;;;5037614;28;20016;-77
2022/01/27 13:08:53;;;;;;;25.70;15.00;;;;;;;;;;5036762;28;20082;-77
2022/01/27 13:11:23;;;;;;;23.55;15.77;;;;;;;;;;5036407;28;20049;-77
2022/01/27 13:13:50;;;;;;;29.23;16.95;;;;;;;;;;5091101;28;20046;-77
2022/01/27 13:16:34;;;;;;;27.92;15.75;;;;;;;;;;5085331;28;20044;-77
2022/01/27 13:19:07;;;;;;;;;;;;;;;;;;5104909;28;20047;-76
2022/01/27 13:21:57;;;;;;;26.65;15.90;;;;;;;;;;5119238;28;19896;-76
2022/01/27 13:24:44;;;;;;;;;;;;;;;;;;;;;
2022/01/27 13:30:23;;;;;;;21.75;13.95;;;;;;;;;;5037914;28;20025;-77
2022/01/27 13:32:57;;;;;;;21.50;14.23;;;;;;;;;;5037924;28;20054;-76
2022/01/27 13:35:29;;;;;;;21.13;12.88;;;;;;;;;;5042599;28;20022;-77
2022/01/27 13:37:58;;;;;;;20.90;12.20;;;;;;;;;;5104397;28;20024;-77
2022/01/27 13:43:20;;;;;;;16.38;11.63;;;;;;;;;;5122562;28;20028;-77
2022/01/27 13:45:47;;;;;;;17.55;11.82;;;;;;;;;;5088783;28;20021;-77
2022/01/27 13:48:22;;;;;;;18.50;11.32;;;;;;;;;;5088722;28;20062;-77
2022/01/27 13:50:55;;;;;;;15.57;9.73;;;;;;;;;;5105454;28;20059;-78
2022/01/27 13:53:26;;;;;;;15.45;9.73;;;;;;;;;;5105568;27;20021;-76
2022/01/27 13:55:59;;;;;;;15.02;9.25;;;;;;;;;;5121930;28;20028;-76
2022/01/27 13:58:28;;;;;;;14.85;9.70;;;;;;;;;;5122150;27;20075;-77
2022/01/27 14:01:05;;;;;;;13.25;9.82;;;;;;;;;;5105265;28;20032;-76
2022/01/27 14:03:43;;;;;;;15.05;9.48;;;;;;;;;;5105119;28;20048;-76
2022/01/27 14:06:13;;;;;;;14.45;9.50;;;;;;;;;;5105448;28;20024;-75
2022/01/27 14:08:40;;;;;;;13.18;9.85;;;;;;;;;;5104923;28;20039;-77
2022/01/27 14:11:08;;;;;;;14.32;10.30;;;;;;;;;;5121756;28;20061;-76
2022/01/27 14:13:35;;;;;;;19.45;11.15;;;;;;;;;;5088234;28;20031;-78
2022/01/27 14:16:02;;;;;;;15.40;11.27;;;;;;;;;;5088138;28;20024;-77
2022/01/27 14:18:43;;;;;;;19.52;12.50;;;;;;;;;;5105182;28;20024;-75
2022/01/27 14:21:11;;;;;;;19.98;12.40;;;;;;;;;;5104733;28;20020;-76
2022/01/27 14:26:34;;;;;;;20.35;13.07;;;;;;;;;;5121724;28;20043;-77
2022/01/27 14:29:03;;;;;;;23.52;13.48;;;;;;;;;;5121678;28;20154;-77
2022/01/27 14:31:30;;;;;;;22.58;13.82;;;;;;;;;;5104884;28;20021;-76
2022/01/27 14:34:02;;;;;;;20.58;14.20;;;;;;;;;;5087919;28;20045;-78
2022/01/27 14:43:12;;;;;;;24.38;14.80;;;;;;;;;;5118240;28;20073;-79
2022/01/27 14:45:41;;;;;;;24.90;15.88;;;;;;;;;;5117780;28;20091;-79
2022/01/27 14:48:15;;;;;;;23.83;15.70;;;;;;;;;;5084157;28;20070;-79
2022/01/27 14:50:45;;;;;;;25.30;16.13;;;;;;;;;;5100762;28;20027;-78
2022/01/27 14:56:42;;;;;;;32.55;19.88;;;;;;;;;;5118707;28;20033;-79
2022/01/27 14:59:08;;;;;;;35.92;24.23;;;;;;;;;;5084509;28;20051;-79
2022/01/27 15:01:41;;;;;;;39.80;26.33;;;;;;;;;;5084130;28;20040;-77
2022/01/27 15:04:08;;;;;;;49.25;32.45;;;;;;;;;;5101612;28;20063;-77
2022/01/27 15:06:36;;;;;;;61.15;37.42;;;;;;;;;;5101670;28;20062;-78
2022/01/27 15:09:05;;;;;;;63.85;38.38;;;;;;;;;;5084951;28;20036;-78
2022/01/27 15:11:44;;;;;;;67.88;40.17;;;;;;;;;;5103377;28;20044;-78
2022/01/27 15:20:36;;;;;;;81.78;50.25;;;;;;;;;;5120384;28;20032;-80
2022/01/27 15:23:16;;;;;;;91.25;52.33;;;;;;;;;;5102729;28;20043;-77
2022/01/27 15:25:45;;;;;;;89.10;51.80;;;;;;;;;;5101682;28;20035;-76
2022/01/27 15:28:21;;;;;;;85.97;51.60;;;;;;;;;;5085661;28;20055;-77
2022/01/27 15:30:51;;;;;;;90.70;53.83;;;;;;;;;;5117704;28;20058;-77
2022/01/27 15:33:17;;;;;;;85.30;53.83;;;;;;;;;;5099514;28;20024;-77
2022/01/27 15:35:45;;;;;;;87.70;52.85;;;;;;;;;;5082121;28;20069;-77
2022/01/27 15:38:13;;;;;;;89.95;53.13;;;;;;;;;;5118873;28;20043;-80
2022/01/27 15:40:41;;;;;;;80.88;49.38;;;;;;;;;;5083547;28;20047;-80
2022/01/27 15:43:07;;;;;;;73.57;47.30;;;;;;;;;;5084404;28;20047;-80
2022/01/27 15:45:33;;;;;;;72.97;46.20;;;;;;;;;;5083611;28;20020;-76
2022/01/27 15:48:01;;;;;;;76.15;46.90;;;;;;;;;;5099886;28;20083;-79
2022/01/27 15:50:32;;;;;;;68.63;45.60;;;;;;;;;;5118196;28;20056;-79
2022/01/27 15:52:59;;;;;;;73.82;47.28;;;;;;;;;;5083225;28;20043;-77
2022/01/27 15:55:27;;;;;;;79.88;49.15;;;;;;;;;;5117042;28;20051;-79
2022/01/27 15:57:54;;;;;;;71.10;45.78;;;;;;;;;;5083248;28;20036;-77
2022/01/27 16:00:22;;;;;;;78.03;47.97;;;;;;;;;;5098167;28;20070;-77
2022/01/27 16:02:50;;;;;;;67.93;45.55;;;;;;;;;;5099182;28;20047;-77
2022/01/27 16:05:21;;;;;;;82.32;48.22;;;;;;;;;;5082335;28;20040;-79
2022/01/27 16:07:52;;;;;;;80.80;49.33;;;;;;;;;;5083969;28;20044;-80
2022/01/27 16:10:19;;;;;;;85.97;47.95;;;;;;;;;;5083137;28;20039;-79
2022/01/27 16:16:04;;;;;;;88.78;52.28;;;;;;;;;;5105899;28;20058;-80
2022/01/27 16:18:35;;;;;;;80.40;49.70;;;;;;;;;;5096170;28;20051;-78
2022/01/27 16:21:01;;;;;;;79.20;50.13;;;;;;;;;;5092514;28;20032;-79